SHT2T EGLL-EGCC
Flight info
| Callsign | SHT2T |
|---|---|
| Flight time | 0h 31m |
| Altitude | 18000 |
| Route | ULTIB1J ULTIB T420 ELVOS ELVOS1M |
| Aircraft | A320/M-SDE3FGIJ1KRWXY/SB1 |
Departure
| Time | 2026-05-04 23:56 |
|---|---|
| Airport | London Heathrow Airport (EGLL) |
Arrival
| Time | 2026-05-05 00:27 |
|---|---|
| Airport | Manchester Airport (EGCC) |
| Time | Latitude | Longitude | Altitude | Speed | Heading |
|---|---|---|---|---|---|
| 2026-05-04 23:32 | 51.46827 | -0.48680 | 86 ft | 0 kts | 180° |
| 2026-05-04 23:46 | 51.46841 | -0.48680 | 87 ft | 4 kts | 180° |
| 2026-05-04 23:47 | 51.46863 | -0.48681 | 86 ft | 4 kts | 191° |
| 2026-05-04 23:47 | 51.46877 | -0.48662 | 88 ft | 4 kts | 266° |
| 2026-05-04 23:47 | 51.46877 | -0.48627 | 86 ft | 1 kts | 270° |
| 2026-05-04 23:47 | 51.46877 | -0.48626 | 86 ft | 0 kts | 270° |
| 2026-05-04 23:51 | 51.46877 | -0.48635 | 86 ft | 2 kts | 270° |
| 2026-05-04 23:51 | 51.46877 | -0.48670 | 89 ft | 4 kts | 270° |
| 2026-05-04 23:51 | 51.46869 | -0.48728 | 86 ft | 6 kts | 236° |
| 2026-05-04 23:52 | 51.46822 | -0.48749 | 86 ft | 8 kts | 180° |
| 2026-05-04 23:52 | 51.46756 | -0.48748 | 86 ft | 11 kts | 179° |
| 2026-05-04 23:52 | 51.46674 | -0.48746 | 86 ft | 13 kts | 179° |
| 2026-05-04 23:52 | 51.46607 | -0.48764 | 90 ft | 5 kts | 198° |
| 2026-05-04 23:53 | 51.46598 | -0.48768 | 89 ft | 0 kts | 198° |
| 2026-05-04 23:54 | 51.46598 | -0.48769 | 86 ft | 1 kts | 198° |
| 2026-05-04 23:54 | 51.46584 | -0.48776 | 89 ft | 3 kts | 198° |
| 2026-05-04 23:54 | 51.46553 | -0.48789 | 88 ft | 6 kts | 187° |
| 2026-05-04 23:54 | 51.46507 | -0.48771 | 88 ft | 8 kts | 151° |
| 2026-05-04 23:55 | 51.46478 | -0.48686 | 86 ft | 10 kts | 97° |
| 2026-05-04 23:55 | 51.46478 | -0.48461 | 89 ft | 43 kts | 90° |
| 2026-05-04 23:55 | 51.46485 | -0.46146 | 92 ft | 153 kts | 90° |
| 2026-05-04 23:56 | 51.46484 | -0.44410 | 644 ft | 152 kts | 88° |
| 2026-05-04 23:56 | 51.46502 | -0.42710 | 1312 ft | 153 kts | 86° |
| 2026-05-04 23:56 | 51.46733 | -0.40983 | 1716 ft | 169 kts | 63° |
| 2026-05-04 23:56 | 51.47462 | -0.39365 | 1985 ft | 191 kts | 50° |
| 2026-05-04 23:57 | 51.48352 | -0.37625 | 2311 ft | 210 kts | 50° |
| 2026-05-04 23:57 | 51.49327 | -0.35696 | 2655 ft | 235 kts | 50° |
| 2026-05-04 23:57 | 51.50394 | -0.33577 | 3291 ft | 250 kts | 50° |
| 2026-05-04 23:57 | 51.51506 | -0.31359 | 4140 ft | 258 kts | 50° |
| 2026-05-04 23:58 | 51.52515 | -0.28930 | 4978 ft | 268 kts | 65° |
| 2026-05-04 23:58 | 51.53193 | -0.26099 | 5834 ft | 274 kts | 61° |
| 2026-05-04 23:58 | 51.54395 | -0.23737 | 6671 ft | 276 kts | 35° |
| 2026-05-04 23:58 | 51.56134 | -0.22486 | 7493 ft | 277 kts | 7° |
| 2026-05-04 23:59 | 51.58044 | -0.22672 | 8326 ft | 278 kts | 343° |
| 2026-05-04 23:59 | 51.59929 | -0.23432 | 9199 ft | 282 kts | 347° |
| 2026-05-04 23:59 | 51.61810 | -0.24223 | 9991 ft | 287 kts | 338° |
| 2026-05-04 23:59 | 51.63644 | -0.25664 | 10467 ft | 303 kts | 330° |
| 2026-05-05 00:00 | 51.65552 | -0.27389 | 10694 ft | 326 kts | 329° |
| 2026-05-05 00:00 | 51.66188 | -0.27987 | 10778 ft | 332 kts | 329° |
| 2026-05-05 00:00 | 51.69579 | -0.31261 | 11056 ft | 341 kts | 328° |
| 2026-05-05 00:00 | 51.71610 | -0.33247 | 11055 ft | 342 kts | 328° |
| 2026-05-05 00:01 | 51.73621 | -0.35213 | 11223 ft | 345 kts | 328° |
| 2026-05-05 00:01 | 51.75679 | -0.37221 | 11984 ft | 347 kts | 328° |
| 2026-05-05 00:01 | 51.77782 | -0.39264 | 12690 ft | 351 kts | 329° |
| 2026-05-05 00:01 | 51.79866 | -0.41281 | 13329 ft | 356 kts | 329° |
| 2026-05-05 00:02 | 51.82003 | -0.43349 | 14034 ft | 358 kts | 328° |
| 2026-05-05 00:02 | 51.84145 | -0.45417 | 14727 ft | 359 kts | 328° |
| 2026-05-05 00:02 | 51.86293 | -0.47497 | 15355 ft | 362 kts | 328° |
| 2026-05-05 00:02 | 51.88466 | -0.49606 | 15973 ft | 365 kts | 328° |
| 2026-05-05 00:03 | 51.90657 | -0.51735 | 16572 ft | 368 kts | 328° |
| 2026-05-05 00:03 | 51.92861 | -0.53882 | 17175 ft | 372 kts | 328° |
| 2026-05-05 00:03 | 51.95086 | -0.56053 | 17770 ft | 375 kts | 328° |
| 2026-05-05 00:03 | 51.97329 | -0.58241 | 18013 ft | 377 kts | 328° |
| 2026-05-05 00:04 | 51.99613 | -0.60473 | 18054 ft | 389 kts | 328° |
| 2026-05-05 00:04 | 52.01190 | -0.62016 | 18054 ft | 393 kts | 328° |
| 2026-05-05 00:04 | 52.03533 | -0.64312 | 18052 ft | 394 kts | 328° |
| 2026-05-05 00:04 | 52.05881 | -0.66614 | 18059 ft | 394 kts | 328° |
| 2026-05-05 00:05 | 52.08229 | -0.68918 | 18051 ft | 394 kts | 328° |
| 2026-05-05 00:05 | 52.10536 | -0.71189 | 18056 ft | 394 kts | 327° |
| 2026-05-05 00:05 | 52.13676 | -0.74290 | 18054 ft | 394 kts | 327° |
| 2026-05-05 00:05 | 52.15227 | -0.75824 | 18055 ft | 394 kts | 327° |
| 2026-05-05 00:06 | 52.17573 | -0.78146 | 18057 ft | 394 kts | 327° |
| 2026-05-05 00:06 | 52.19911 | -0.80460 | 18057 ft | 394 kts | 327° |
| 2026-05-05 00:06 | 52.22256 | -0.82777 | 18052 ft | 394 kts | 328° |
| 2026-05-05 00:06 | 52.24590 | -0.85083 | 18048 ft | 394 kts | 327° |
| 2026-05-05 00:07 | 52.26940 | -0.87409 | 18043 ft | 394 kts | 327° |
| 2026-05-05 00:07 | 52.29280 | -0.89731 | 18061 ft | 394 kts | 327° |
| 2026-05-05 00:07 | 52.31615 | -0.92053 | 18059 ft | 394 kts | 327° |
| 2026-05-05 00:07 | 52.33960 | -0.94387 | 18062 ft | 393 kts | 327° |
| 2026-05-05 00:08 | 52.36294 | -0.96715 | 18060 ft | 394 kts | 327° |
| 2026-05-05 00:08 | 52.38631 | -0.99053 | 18062 ft | 394 kts | 327° |
| 2026-05-05 00:08 | 52.40969 | -1.01392 | 18067 ft | 394 kts | 327° |
| 2026-05-05 00:08 | 52.43303 | -1.03731 | 18059 ft | 394 kts | 327° |
| 2026-05-05 00:09 | 52.45646 | -1.06084 | 18055 ft | 394 kts | 327° |
| 2026-05-05 00:09 | 52.47973 | -1.08422 | 18054 ft | 394 kts | 327° |
| 2026-05-05 00:09 | 52.50320 | -1.10778 | 18048 ft | 394 kts | 327° |
| 2026-05-05 00:09 | 52.52657 | -1.13126 | 18057 ft | 394 kts | 326° |
| 2026-05-05 00:10 | 52.54997 | -1.15483 | 18050 ft | 394 kts | 326° |
| 2026-05-05 00:10 | 52.57327 | -1.17834 | 18035 ft | 394 kts | 326° |
| 2026-05-05 00:10 | 52.59669 | -1.20198 | 18032 ft | 394 kts | 326° |
| 2026-05-05 00:10 | 52.61989 | -1.22543 | 18035 ft | 394 kts | 326° |
| 2026-05-05 00:11 | 52.64330 | -1.24920 | 18030 ft | 394 kts | 326° |
| 2026-05-05 00:11 | 52.66660 | -1.27288 | 18028 ft | 394 kts | 326° |
| 2026-05-05 00:11 | 52.68995 | -1.29657 | 18029 ft | 394 kts | 326° |
| 2026-05-05 00:11 | 52.71329 | -1.32024 | 18029 ft | 394 kts | 326° |
| 2026-05-05 00:12 | 52.73656 | -1.34385 | 18060 ft | 394 kts | 326° |
| 2026-05-05 00:12 | 52.75997 | -1.36764 | 18062 ft | 394 kts | 326° |
| 2026-05-05 00:12 | 52.78296 | -1.39104 | 18056 ft | 393 kts | 326° |
| 2026-05-05 00:12 | 52.80617 | -1.41471 | 18057 ft | 392 kts | 326° |
| 2026-05-05 00:13 | 52.82936 | -1.43843 | 18036 ft | 391 kts | 326° |
| 2026-05-05 00:13 | 52.85235 | -1.46196 | 17480 ft | 387 kts | 326° |
| 2026-05-05 00:13 | 52.87510 | -1.48525 | 16861 ft | 384 kts | 326° |
| 2026-05-05 00:13 | 52.89769 | -1.50845 | 16265 ft | 380 kts | 326° |
| 2026-05-05 00:14 | 52.92006 | -1.53149 | 15657 ft | 377 kts | 326° |
| 2026-05-05 00:14 | 52.94220 | -1.55431 | 15071 ft | 374 kts | 326° |
| 2026-05-05 00:14 | 52.96428 | -1.57707 | 14490 ft | 371 kts | 326° |
| 2026-05-05 00:14 | 52.98606 | -1.59976 | 13924 ft | 368 kts | 326° |
| 2026-05-05 00:15 | 53.00758 | -1.62236 | 13318 ft | 364 kts | 326° |
| 2026-05-05 00:15 | 53.02886 | -1.64470 | 12760 ft | 360 kts | 326° |
| 2026-05-05 00:15 | 53.04998 | -1.66696 | 12172 ft | 357 kts | 327° |
| 2026-05-05 00:15 | 53.07214 | -1.68515 | 11574 ft | 355 kts | 335° |
| 2026-05-05 00:16 | 53.09479 | -1.70109 | 11069 ft | 350 kts | 335° |
| 2026-05-05 00:16 | 53.11667 | -1.71644 | 10931 ft | 329 kts | 335° |
| 2026-05-05 00:16 | 53.13690 | -1.73058 | 10800 ft | 304 kts | 335° |
| 2026-05-05 00:16 | 53.15585 | -1.74379 | 10507 ft | 289 kts | 335° |
| 2026-05-05 00:17 | 53.17413 | -1.75658 | 9994 ft | 283 kts | 335° |
| 2026-05-05 00:17 | 53.19218 | -1.76932 | 9387 ft | 280 kts | 335° |
| 2026-05-05 00:17 | 53.21008 | -1.78203 | 8765 ft | 278 kts | 335° |
| 2026-05-05 00:17 | 53.22776 | -1.79462 | 8185 ft | 275 kts | 335° |
| 2026-05-05 00:18 | 53.24527 | -1.80710 | 7603 ft | 273 kts | 335° |
| 2026-05-05 00:18 | 53.26270 | -1.81935 | 7062 ft | 270 kts | 335° |
| 2026-05-05 00:18 | 53.27960 | -1.83109 | 6826 ft | 255 kts | 335° |
| 2026-05-05 00:18 | 53.29569 | -1.84232 | 6485 ft | 249 kts | 335° |
| 2026-05-05 00:19 | 53.31160 | -1.85347 | 6228 ft | 246 kts | 335° |
| 2026-05-05 00:19 | 53.32736 | -1.86457 | 5935 ft | 245 kts | 335° |
| 2026-05-05 00:19 | 53.34306 | -1.87561 | 5663 ft | 244 kts | 335° |
| 2026-05-05 00:19 | 53.35866 | -1.88650 | 5389 ft | 243 kts | 335° |
| 2026-05-05 00:20 | 53.37449 | -1.89490 | 5116 ft | 243 kts | 347° |
| 2026-05-05 00:20 | 53.39139 | -1.89939 | 4826 ft | 243 kts | 350° |
| 2026-05-05 00:20 | 53.40789 | -1.90325 | 4682 ft | 235 kts | 350° |
| 2026-05-05 00:20 | 53.42373 | -1.90680 | 4452 ft | 231 kts | 351° |
| 2026-05-05 00:21 | 53.43956 | -1.91046 | 4164 ft | 228 kts | 346° |
| 2026-05-05 00:21 | 53.45370 | -1.92130 | 3934 ft | 221 kts | 324° |
| 2026-05-05 00:21 | 53.46579 | -1.93635 | 3805 ft | 213 kts | 321° |
| 2026-05-05 00:21 | 53.47724 | -1.95138 | 3673 ft | 205 kts | 320° |
| 2026-05-05 00:22 | 53.48816 | -1.96590 | 3573 ft | 196 kts | 318° |
| 2026-05-05 00:22 | 53.49539 | -1.98393 | 3495 ft | 184 kts | 278° |
| 2026-05-05 00:22 | 53.49231 | -2.00391 | 3517 ft | 184 kts | 231° |
| 2026-05-05 00:22 | 53.48133 | -2.01510 | 3504 ft | 188 kts | 206° |
| 2026-05-05 00:23 | 53.47134 | -2.02823 | 3486 ft | 183 kts | 239° |
| 2026-05-05 00:23 | 53.46439 | -2.04574 | 3472 ft | 176 kts | 233° |
| 2026-05-05 00:23 | 53.45673 | -2.06117 | 3299 ft | 169 kts | 233° |
| 2026-05-05 00:23 | 53.44938 | -2.07619 | 3102 ft | 163 kts | 234° |
| 2026-05-05 00:24 | 53.44227 | -2.09092 | 2877 ft | 162 kts | 234° |
| 2026-05-05 00:24 | 53.43531 | -2.10540 | 2674 ft | 161 kts | 234° |
| 2026-05-05 00:24 | 53.42819 | -2.12024 | 2452 ft | 161 kts | 234° |
| 2026-05-05 00:24 | 53.42117 | -2.13487 | 2230 ft | 161 kts | 234° |
| 2026-05-05 00:25 | 53.41415 | -2.14949 | 2011 ft | 161 kts | 234° |
| 2026-05-05 00:25 | 53.40712 | -2.16412 | 1789 ft | 161 kts | 234° |
| 2026-05-05 00:25 | 53.40009 | -2.17874 | 1545 ft | 160 kts | 234° |
| 2026-05-05 00:25 | 53.39336 | -2.19271 | 1345 ft | 149 kts | 234° |
| 2026-05-05 00:26 | 53.38701 | -2.20590 | 1130 ft | 144 kts | 233° |
| 2026-05-05 00:26 | 53.38086 | -2.21867 | 928 ft | 141 kts | 232° |
| 2026-05-05 00:26 | 53.37470 | -2.23145 | 731 ft | 140 kts | 231° |
| 2026-05-05 00:26 | 53.36856 | -2.24430 | 534 ft | 140 kts | 231° |
| 2026-05-05 00:27 | 53.36249 | -2.25689 | 332 ft | 139 kts | 230° |
| 2026-05-05 00:27 | 53.35670 | -2.26880 | 261 ft | 116 kts | 232° |
| 2026-05-05 00:27 | 53.35358 | -2.27532 | 251 ft | 32 kts | 232° |
| 2026-05-05 00:27 | 53.35270 | -2.27791 | 242 ft | 27 kts | 252° |
| 2026-05-05 00:28 | 53.35240 | -2.28048 | 238 ft | 12 kts | 262° |
| 2026-05-05 00:28 | 53.35231 | -2.28156 | 236 ft | 9 kts | 265° |
| 2026-05-05 00:28 | 53.35233 | -2.28184 | 238 ft | 0 kts | 282° |
| 2026-05-05 00:29 | 53.35234 | -2.28189 | 238 ft | 2 kts | 286° |
| 2026-05-05 00:29 | 53.35250 | -2.28217 | 241 ft | 4 kts | 328° |
| 2026-05-05 00:29 | 53.35269 | -2.28220 | 236 ft | 3 kts | 14° |
| 2026-05-05 00:30 | 53.35283 | -2.28199 | 237 ft | 3 kts | 45° |
| 2026-05-05 00:30 | 53.35296 | -2.28177 | 238 ft | 3 kts | 45° |
| 2026-05-05 00:30 | 53.35312 | -2.28151 | 239 ft | 6 kts | 45° |
| 2026-05-05 00:30 | 53.35347 | -2.28092 | 240 ft | 7 kts | 44° |
| 2026-05-05 00:31 | 53.35389 | -2.28025 | 242 ft | 10 kts | 44° |
| 2026-05-05 00:31 | 53.35440 | -2.27943 | 245 ft | 10 kts | 44° |
| 2026-05-05 00:31 | 53.35493 | -2.27858 | 248 ft | 11 kts | 44° |
| 2026-05-05 00:31 | 53.35549 | -2.27769 | 250 ft | 11 kts | 43° |
| 2026-05-05 00:32 | 53.35596 | -2.27694 | 253 ft | 9 kts | 44° |
| 2026-05-05 00:32 | 53.35642 | -2.27625 | 255 ft | 9 kts | 33° |
| 2026-05-05 00:32 | 53.35707 | -2.27629 | 256 ft | 11 kts | 338° |
| 2026-05-05 00:32 | 53.35787 | -2.27700 | 255 ft | 15 kts | 321° |
| 2026-05-05 00:33 | 53.35868 | -2.27833 | 255 ft | 18 kts | 332° |
| 2026-05-05 00:33 | 53.35993 | -2.27832 | 255 ft | 20 kts | 6° |
| 2026-05-05 00:33 | 53.36116 | -2.27934 | 255 ft | 22 kts | 315° |
| 2026-05-05 00:33 | 53.36232 | -2.28130 | 255 ft | 25 kts | 315° |
| 2026-05-05 00:34 | 53.36356 | -2.28333 | 255 ft | 25 kts | 315° |
| 2026-05-05 00:34 | 53.36471 | -2.28532 | 255 ft | 23 kts | 314° |
| 2026-05-05 00:34 | 53.36571 | -2.28711 | 255 ft | 16 kts | 302° |
| 2026-05-05 00:34 | 53.36628 | -2.28874 | 255 ft | 16 kts | 321° |
| 2026-05-05 00:35 | 53.36706 | -2.28986 | 255 ft | 14 kts | 316° |
| 2026-05-05 00:35 | 53.36768 | -2.29044 | 255 ft | 10 kts | 358° |
| 2026-05-05 00:35 | 53.36840 | -2.28979 | 255 ft | 14 kts | 40° |
| 2026-05-05 00:35 | 53.36916 | -2.28855 | 255 ft | 17 kts | 44° |
| 2026-05-05 00:36 | 53.36970 | -2.28763 | 255 ft | 2 kts | 64° |
| 2026-05-05 00:36 | 53.36961 | -2.28725 | 255 ft | 4 kts | 125° |
| 2026-05-05 00:36 | 53.36949 | -2.28702 | 255 ft | 3 kts | 130° |
| 2026-05-05 00:36 | 53.36941 | -2.28687 | 255 ft | 0 kts | 131° |